createdAt,value
2022-08-09T00:01:48.401Z,2.22
2022-08-09T00:04:33.957Z,2.38
2022-08-09T00:07:07.664Z,2.28
2022-08-09T00:09:38.817Z,2.60
2022-08-09T00:12:07.142Z,2.65
2022-08-09T00:14:38.194Z,2.72
2022-08-09T00:17:06.208Z,3.00
2022-08-09T00:19:34.092Z,2.90
2022-08-09T00:22:04.328Z,2.70
2022-08-09T00:24:32.565Z,3.78
2022-08-09T00:27:00.302Z,2.97
2022-08-09T00:30:10.119Z,3.25
2022-08-09T00:32:26.759Z,2.55
2022-08-09T00:34:55.463Z,3.08
2022-08-09T00:37:24.427Z,2.88
2022-08-09T00:40:12.230Z,3.38
2022-08-09T00:44:15.389Z,3.47
2022-08-09T00:45:26.765Z,3.80
2022-08-09T00:47:55.516Z,4.50
2022-08-09T00:50:23.493Z,4.43
2022-08-09T00:52:52.832Z,4.25
2022-08-09T00:56:03.831Z,5.47
2022-08-09T00:58:09.249Z,3.85
2022-08-09T01:00:44.257Z,4.55
2022-08-09T01:03:17.018Z,3.30
2022-08-09T01:05:54.561Z,4.28
2022-08-09T01:08:32.206Z,4.15
2022-08-09T01:11:15.271Z,3.50
2022-08-09T01:13:59.234Z,3.30
2022-08-09T01:16:32.980Z,5.32
2022-08-09T01:21:51.350Z,3.05
2022-08-09T01:24:34.961Z,3.22
2022-08-09T01:27:08.060Z,4.68
2022-08-09T01:29:56.386Z,4.18
2022-08-09T01:32:34.105Z,3.78
2022-08-09T01:35:28.269Z,3.78
2022-08-09T01:38:10.222Z,3.78
2022-08-09T01:40:52.839Z,4.38
2022-08-09T01:43:50.721Z,4.30
2022-08-09T01:46:25.001Z,4.68
2022-08-09T01:48:57.341Z,3.08
2022-08-09T01:51:32.117Z,3.15
2022-08-09T01:54:02.104Z,5.32
2022-08-09T01:56:35.086Z,4.65
2022-08-09T01:59:09.317Z,3.10
2022-08-09T02:01:57.891Z,3.30
2022-08-09T02:04:28.527Z,3.58
2022-08-09T02:06:59.090Z,2.80
2022-08-09T02:09:42.551Z,3.10
2022-08-09T02:12:17.996Z,4.80
2022-08-09T02:14:52.959Z,4.15
2022-08-09T02:17:59.545Z,4.00
2022-08-09T02:23:03.024Z,3.90
2022-08-09T02:25:42.346Z,5.20
2022-08-09T02:28:18.077Z,6.53
2022-08-09T02:30:51.736Z,5.45
2022-08-09T02:33:38.188Z,4.90
2022-08-09T02:36:16.145Z,5.78
2022-08-09T02:38:49.912Z,6.57
2022-08-09T02:41:32.636Z,6.18
2022-08-09T02:44:13.749Z,6.30
2022-08-09T02:46:59.928Z,6.57
2022-08-09T02:49:40.945Z,6.47
2022-08-09T02:52:13.615Z,5.95
2022-08-09T02:54:54.637Z,6.60
2022-08-09T02:57:24.995Z,8.43
2022-08-09T03:00:25.639Z,7.57
2022-08-09T03:02:59.827Z,6.57
2022-08-09T03:05:31.632Z,7.07
2022-08-09T03:08:03.968Z,9.70
2022-08-09T03:10:34.816Z,9.93
2022-08-09T03:13:03.251Z,10.50
2022-08-09T03:16:04.727Z,9.88
2022-08-09T03:18:31.043Z,6.57
2022-08-09T03:21:00.458Z,5.50
2022-08-09T03:23:29.310Z,7.43
2022-08-09T03:26:03.760Z,8.70
2022-08-09T03:28:33.889Z,9.73
2022-08-09T03:31:10.203Z,8.95
2022-08-09T03:33:54.315Z,9.48
2022-08-09T03:36:27.277Z,7.90
2022-08-09T03:38:56.578Z,6.72
2022-08-09T03:41:29.858Z,6.45
2022-08-09T03:44:12.215Z,7.57
2022-08-09T03:46:39.617Z,7.38
2022-08-09T03:49:09.831Z,7.45
2022-08-09T03:51:56.287Z,6.65
2022-08-09T03:54:29.793Z,8.23
2022-08-09T03:57:02.101Z,6.72
2022-08-09T03:59:53.251Z,7.10
2022-08-09T04:02:26.690Z,6.55
2022-08-09T04:05:00.871Z,7.22
2022-08-09T04:07:47.695Z,6.75
2022-08-09T04:10:20.501Z,7.20
2022-08-09T04:15:39.083Z,7.68
2022-08-09T04:18:07.634Z,7.30
2022-08-09T04:20:36.475Z,7.85
2022-08-09T04:23:03.850Z,7.90
2022-08-09T04:25:37.837Z,8.23
2022-08-09T04:28:05.484Z,7.35
2022-08-09T04:30:32.922Z,7.47
2022-08-09T04:33:01.270Z,7.80
2022-08-09T04:35:29.443Z,8.82
2022-08-09T04:38:03.680Z,7.72
2022-08-09T04:40:36.174Z,8.82
2022-08-09T04:43:04.095Z,8.73
2022-08-09T04:45:35.748Z,8.57
2022-08-09T04:48:10.750Z,7.32
2022-08-09T04:50:38.386Z,8.93
2022-08-09T04:53:07.168Z,8.63
2022-08-09T04:55:57.523Z,9.80
2022-08-09T04:58:26.271Z,8.88
2022-08-09T05:00:54.441Z,8.93
2022-08-09T05:03:41.305Z,8.35
2022-08-09T05:06:11.228Z,8.52
2022-08-09T05:08:43.910Z,8.65
2022-08-09T05:11:15.632Z,8.65
2022-08-09T05:13:43.125Z,7.85
2022-08-09T05:16:10.666Z,7.43
2022-08-09T05:18:58.643Z,7.78
2022-08-09T05:21:30.130Z,7.10
2022-08-09T05:24:02.124Z,7.25
2022-08-09T05:26:37.081Z,6.82
2022-08-09T05:29:17.389Z,6.90
2022-08-09T05:31:47.534Z,6.97
2022-08-09T05:34:19.636Z,5.93
2022-08-09T05:36:47.549Z,6.45
2022-08-09T05:39:28.590Z,6.55
2022-08-09T05:42:01.497Z,6.07
2022-08-09T05:44:32.621Z,6.40
2022-08-09T05:47:00.922Z,6.35
2022-08-09T05:50:11.036Z,6.75
2022-08-09T05:52:20.390Z,6.75
2022-08-09T05:54:49.359Z,5.93
2022-08-09T05:57:19.309Z,6.35
2022-08-09T05:59:47.179Z,5.93
2022-08-09T06:02:16.952Z,6.10
2022-08-09T06:04:46.300Z,5.95
2022-08-09T06:07:21.294Z,6.05
2022-08-09T06:09:54.643Z,4.90
2022-08-09T06:12:30.136Z,5.38
2022-08-09T06:15:01.045Z,4.55
2022-08-09T06:17:40.250Z,4.68
2022-08-09T06:20:09.361Z,4.57
2022-08-09T06:22:37.026Z,4.78
2022-08-09T06:25:08.600Z,4.57
2022-08-09T06:27:41.385Z,4.53
2022-08-09T06:30:14.262Z,5.20
2022-08-09T06:33:00.136Z,4.10
2022-08-09T06:35:55.715Z,4.00
2022-08-09T06:38:18.289Z,4.13
2022-08-09T06:40:48.386Z,4.18
2022-08-09T06:43:22.294Z,3.30
2022-08-09T06:46:08.030Z,3.20
2022-08-09T06:48:42.840Z,2.97
2022-08-09T06:51:11.600Z,3.58
2022-08-09T06:53:39.489Z,3.58
2022-08-09T06:56:09.202Z,3.22
2022-08-09T07:00:47.569Z,3.63
2022-08-09T07:01:27.388Z,3.40
2022-08-09T07:04:00.373Z,3.13
2022-08-09T07:06:31.511Z,3.15
2022-08-09T07:08:59.197Z,3.30
2022-08-09T07:11:34.241Z,3.38
2022-08-09T07:14:15.589Z,3.03
2022-08-09T07:16:48.989Z,3.30
2022-08-09T07:19:23.382Z,3.42
2022-08-09T07:21:57.714Z,3.00
2022-08-09T07:24:32.155Z,2.53
2022-08-09T07:27:11.137Z,3.08
2022-08-09T07:29:56.835Z,3.20
2022-08-09T07:32:33.729Z,2.80
2022-08-09T07:35:08.175Z,3.10
2022-08-09T07:37:43.457Z,2.95
2022-08-09T07:40:17.701Z,2.70
2022-08-09T07:42:55.625Z,2.83
2022-08-09T07:45:38.007Z,2.75
2022-08-09T07:48:28.531Z,3.08
2022-08-09T07:51:09.309Z,2.45
2022-08-09T07:54:04.462Z,2.65
2022-08-09T07:56:32.484Z,2.95
2022-08-09T07:59:01.350Z,3.15
2022-08-09T08:01:33.151Z,2.65
2022-08-09T08:04:02.358Z,2.58
2022-08-09T08:06:32.133Z,2.45
2022-08-09T08:09:05.058Z,2.60
2022-08-09T08:12:10.351Z,2.47
2022-08-09T08:14:24.274Z,2.20
2022-08-09T08:17:07.658Z,2.35
2022-08-09T08:19:36.743Z,2.58
2022-08-09T08:22:04.888Z,2.20
2022-08-09T08:24:35.313Z,2.03
2022-08-09T08:27:16.735Z,2.13
2022-08-09T08:29:50.086Z,1.90
2022-08-09T08:32:29.018Z,2.22
2022-08-09T08:34:58.840Z,2.35
2022-08-09T08:37:41.467Z,2.30
2022-08-09T08:40:15.464Z,1.80
2022-08-09T08:42:46.993Z,1.98
2022-08-09T08:45:37.350Z,1.90
2022-08-09T08:48:06.043Z,2.40
2022-08-09T08:50:33.885Z,1.90
2022-08-09T08:53:03.980Z,1.98
2022-08-09T08:55:32.206Z,1.98
2022-08-09T08:57:59.973Z,1.85
2022-08-09T09:00:34.294Z,2.00
2022-08-09T09:03:11.385Z,1.73
2022-08-09T09:05:58.105Z,1.70
2022-08-09T09:08:40.512Z,2.22
2022-08-09T09:11:17.863Z,1.70
2022-08-09T09:13:57.587Z,1.90
2022-08-09T09:16:34.213Z,2.10
2022-08-09T09:22:05.034Z,1.73
2022-08-09T09:24:37.855Z,1.63
2022-08-09T09:27:07.625Z,1.52
2022-08-09T09:30:14.038Z,1.67
2022-08-09T09:32:34.808Z,1.58
2022-08-09T09:35:09.186Z,1.48
2022-08-09T09:37:40.576Z,1.48
2022-08-09T09:40:11.742Z,1.70
2022-08-09T09:42:46.089Z,1.50
2022-08-09T09:45:14.444Z,1.83
2022-08-09T09:47:58.331Z,2.03
2022-08-09T09:50:49.363Z,1.60
2022-08-09T09:53:20.838Z,1.80
2022-08-09T09:56:03.857Z,1.60
2022-08-09T09:58:45.420Z,1.42
2022-08-09T10:01:37.378Z,1.55
2022-08-09T10:04:16.211Z,1.80
2022-08-09T10:06:58.890Z,1.50
2022-08-09T10:09:46.459Z,1.35
2022-08-09T10:12:29.440Z,1.10
2022-08-09T10:15:07.745Z,1.38
2022-08-09T10:17:56.582Z,1.42
2022-08-09T10:20:35.631Z,1.48
2022-08-09T10:23:20.415Z,1.33
2022-08-09T10:26:06.836Z,1.60
2022-08-09T10:28:38.874Z,1.70
2022-08-09T10:34:10.344Z,1.60
2022-08-09T10:36:47.813Z,1.40
2022-08-09T10:44:18.137Z,1.83
2022-08-09T10:47:20.435Z,1.90
2022-08-09T10:50:02.213Z,1.90
2022-08-09T10:52:47.910Z,1.70
2022-08-09T10:55:20.829Z,1.92
2022-08-09T10:57:51.980Z,1.58
2022-08-09T11:01:35.884Z,2.33
2022-08-09T11:03:50.195Z,1.63
2022-08-09T11:06:23.006Z,1.70
2022-08-09T11:08:53.263Z,1.88
2022-08-09T11:11:22.429Z,1.80
2022-08-09T11:14:31.822Z,1.90
2022-08-09T11:16:59.872Z,1.50
2022-08-09T11:20:11.311Z,1.70
2022-08-09T11:23:00.827Z,1.90
2022-08-09T11:25:48.477Z,1.60
2022-08-09T11:28:56.477Z,3.45
2022-08-09T11:31:49.287Z,2.17
2022-08-09T11:34:27.425Z,1.50
2022-08-09T11:36:56.809Z,1.92
2022-08-09T11:39:25.565Z,1.83
2022-08-09T11:42:14.657Z,1.65
2022-08-09T11:44:47.149Z,1.50
2022-08-09T11:47:15.902Z,1.58
2022-08-09T11:50:52.485Z,1.88
2022-08-09T11:53:44.000Z,1.60
2022-08-09T11:56:41.945Z,1.73
2022-08-09T11:59:24.801Z,2.05
2022-08-09T12:02:16.930Z,1.95
2022-08-09T12:04:46.195Z,1.77
2022-08-09T12:07:14.315Z,1.80
2022-08-09T12:09:43.996Z,1.42
2022-08-09T12:12:20.302Z,1.88
2022-08-09T12:15:07.205Z,1.70
2022-08-09T12:17:42.848Z,1.60
2022-08-09T12:20:16.813Z,2.22
2022-08-09T12:22:53.191Z,1.60
2022-08-09T12:25:36.742Z,1.65
2022-08-09T12:29:15.035Z,1.38
2022-08-09T12:30:58.817Z,1.35
2022-08-09T12:33:50.833Z,2.15
2022-08-09T12:36:27.667Z,1.58
2022-08-09T12:39:01.753Z,1.70
2022-08-09T12:41:36.389Z,1.60
2022-08-09T12:44:10.026Z,1.50
2022-08-09T12:46:43.365Z,1.80
2022-08-09T12:49:18.061Z,1.90
2022-08-09T12:52:00.689Z,1.70
2022-08-09T12:55:03.290Z,1.73
2022-08-09T12:57:38.594Z,1.60
2022-08-09T13:02:54.078Z,1.60
2022-08-09T13:05:25.310Z,1.60
2022-08-09T13:08:13.878Z,1.70
2022-08-09T13:10:52.107Z,1.67
2022-08-09T13:13:38.102Z,1.40
2022-08-09T13:16:19.653Z,1.70
2022-08-09T13:18:53.516Z,1.60
2022-08-09T13:22:36.846Z,1.65
2022-08-09T13:24:42.617Z,1.65
2022-08-09T13:26:58.822Z,1.63
2022-08-09T13:29:28.561Z,1.60
2022-08-09T13:34:47.221Z,1.63
2022-08-09T13:37:24.766Z,2.10
2022-08-09T13:41:50.417Z,1.70
2022-08-09T13:42:50.663Z,1.63
2022-08-09T13:45:18.653Z,2.08
2022-08-09T13:47:51.254Z,1.98
2022-08-09T13:50:30.516Z,1.60
2022-08-09T13:52:59.307Z,1.77
2022-08-09T13:55:29.182Z,2.03
2022-08-09T13:57:58.288Z,1.67
2022-08-09T14:00:28.634Z,1.60
2022-08-09T14:03:03.864Z,1.92
2022-08-09T14:06:00.527Z,2.00
2022-08-09T14:08:30.698Z,1.77
2022-08-09T14:11:01.233Z,1.88
2022-08-09T14:14:22.539Z,1.90
2022-08-09T14:16:19.978Z,2.10
2022-08-09T14:18:58.099Z,2.05
2022-08-09T14:21:29.273Z,2.40
2022-08-09T14:23:57.725Z,1.77
2022-08-09T14:26:34.000Z,1.92
2022-08-09T14:29:08.364Z,2.05
2022-08-09T14:31:54.569Z,1.95
2022-08-09T14:34:31.536Z,2.10
2022-08-09T14:37:06.779Z,2.30
2022-08-09T14:39:40.461Z,1.92
2022-08-09T14:42:40.577Z,2.17
2022-08-09T14:46:39.731Z,2.00
2022-08-09T14:47:57.534Z,2.53
2022-08-09T14:50:27.275Z,2.40
2022-08-09T14:52:56.482Z,2.15
2022-08-09T14:55:25.485Z,1.80
2022-08-09T14:57:56.972Z,2.20
2022-08-09T15:00:25.109Z,2.38
2022-08-09T15:02:54.456Z,2.33
2022-08-09T15:05:25.960Z,2.28
2022-08-09T15:07:58.188Z,2.47
2022-08-09T15:10:26.089Z,2.70
2022-08-09T15:12:53.994Z,2.67
2022-08-09T15:15:22.312Z,2.80
2022-08-09T15:17:52.704Z,2.53
2022-08-09T15:21:55.401Z,2.00
2022-08-09T15:24:02.412Z,2.10
2022-08-09T15:25:58.621Z,2.33
2022-08-09T15:28:28.302Z,2.10
2022-08-09T15:31:07.283Z,1.92
2022-08-09T15:34:18.007Z,1.92
2022-08-09T15:36:29.040Z,2.20
2022-08-09T15:38:59.813Z,2.35
2022-08-09T15:41:31.660Z,2.20
2022-08-09T15:44:00.428Z,2.08
2022-08-09T15:46:34.399Z,2.30
2022-08-09T15:49:20.623Z,2.50
2022-08-09T15:52:03.147Z,2.00
2022-08-09T15:54:46.297Z,2.20
2022-08-09T15:57:19.260Z,2.17
2022-08-09T16:00:06.269Z,1.92
2022-08-09T16:02:33.889Z,2.20
2022-08-09T16:05:02.455Z,2.22
2022-08-09T16:07:51.040Z,1.92
2022-08-09T16:10:38.796Z,2.10
2022-08-09T16:13:20.887Z,2.17
2022-08-09T16:16:10.586Z,2.00
2022-08-09T16:18:44.610Z,2.28
2022-08-09T16:21:17.176Z,2.20
2022-08-09T16:23:55.506Z,2.35
2022-08-09T16:26:35.316Z,2.20
2022-08-09T16:29:11.588Z,2.20
2022-08-09T16:32:19.669Z,2.03
2022-08-09T16:34:29.259Z,2.50
2022-08-09T16:36:57.124Z,1.95
2022-08-09T16:39:25.882Z,1.88
2022-08-09T16:42:02.562Z,2.00
2022-08-09T16:44:32.222Z,1.90
2022-08-09T16:47:04.095Z,2.03
2022-08-09T16:50:30.302Z,2.10
2022-08-09T16:52:35.961Z,2.20
2022-08-09T16:55:04.108Z,2.20
2022-08-09T16:58:08.769Z,2.30
2022-08-09T17:00:24.565Z,1.90
2022-08-09T17:02:52.349Z,2.13
2022-08-09T17:05:24.822Z,1.98
2022-08-09T17:08:46.216Z,2.00
2022-08-09T17:10:59.826Z,2.28
2022-08-09T17:13:34.472Z,2.13
2022-08-09T17:16:02.653Z,1.85
2022-08-09T17:18:30.486Z,2.20
2022-08-09T17:20:57.829Z,2.30
2022-08-09T17:24:21.121Z,2.30
2022-08-09T17:26:13.263Z,1.95
2022-08-09T17:31:15.921Z,1.73
2022-08-09T17:33:43.552Z,1.83
2022-08-09T17:36:11.029Z,1.70
2022-08-09T17:38:43.522Z,2.40
2022-08-09T17:41:37.639Z,2.20
2022-08-09T17:44:38.852Z,2.03
2022-08-09T17:46:57.726Z,1.70
2022-08-09T17:49:25.532Z,1.90
2022-08-09T17:51:57.735Z,1.70
2022-08-09T17:54:29.539Z,2.17
2022-08-09T17:56:57.465Z,2.00
2022-08-09T17:59:37.917Z,1.88
2022-08-09T18:02:11.266Z,2.28
2022-08-09T18:07:11.540Z,2.10
2022-08-09T18:10:04.420Z,2.58
2022-08-09T18:12:40.907Z,2.10
2022-08-09T18:15:21.971Z,1.80
2022-08-09T18:18:09.639Z,2.03
2022-08-09T18:21:10.370Z,1.90
2022-08-09T18:24:09.446Z,1.88
2022-08-09T18:26:27.878Z,2.15
2022-08-09T18:30:39.248Z,2.08
2022-08-09T18:31:54.932Z,1.70
2022-08-09T18:34:24.014Z,2.47
2022-08-09T18:36:53.470Z,2.45
2022-08-09T18:39:21.024Z,1.67
2022-08-09T18:41:52.821Z,2.30
2022-08-09T18:44:25.548Z,1.98
2022-08-09T18:47:07.365Z,1.95
2022-08-09T18:49:43.466Z,1.80
2022-08-09T18:52:18.729Z,1.80
2022-08-09T18:54:53.431Z,1.75
2022-08-09T18:57:22.801Z,2.20
2022-08-09T18:59:58.836Z,1.88
2022-08-09T19:02:32.636Z,1.85
2022-08-09T19:05:04.441Z,1.90
2022-08-09T19:07:59.313Z,2.05
2022-08-09T19:10:37.082Z,2.20
2022-08-09T19:13:17.227Z,2.10
2022-08-09T19:15:50.202Z,2.25
2022-08-09T19:18:35.191Z,2.00
2022-08-09T19:21:09.191Z,1.88
2022-08-09T19:26:30.989Z,1.95
2022-08-09T19:29:02.466Z,2.08
2022-08-09T19:31:45.532Z,2.53
2022-08-09T19:34:22.104Z,2.03
2022-08-09T19:36:52.195Z,2.13
2022-08-09T19:39:43.600Z,2.08
2022-08-09T19:42:08.381Z,2.10
2022-08-09T19:44:36.011Z,2.10
2022-08-09T19:47:03.394Z,1.98
2022-08-09T19:50:06.570Z,2.70
2022-08-09T19:52:20.477Z,2.15
2022-08-09T19:54:57.252Z,2.25
2022-08-09T19:57:26.603Z,3.33
2022-08-09T20:00:05.465Z,2.72
2022-08-09T20:04:10.092Z,2.63
2022-08-09T20:05:24.912Z,2.65
2022-08-09T20:07:59.398Z,2.60
2022-08-09T20:10:34.780Z,3.03
2022-08-09T20:13:06.361Z,2.97
2022-08-09T20:16:35.537Z,2.67
2022-08-09T20:18:22.092Z,3.80
2022-08-09T20:20:55.285Z,3.30
2022-08-09T20:23:23.920Z,3.42
2022-08-09T20:26:06.832Z,2.85
2022-08-09T20:28:47.971Z,2.85
2022-08-09T20:31:16.329Z,2.72
2022-08-09T20:33:44.882Z,3.45
2022-08-09T20:36:14.006Z,2.95
2022-08-09T20:41:32.102Z,2.92
2022-08-09T20:44:02.744Z,2.72
2022-08-09T20:46:42.293Z,3.22
2022-08-09T20:49:12.933Z,2.45
2022-08-09T20:51:42.496Z,2.40
2022-08-09T20:54:16.690Z,2.50
2022-08-09T20:56:47.199Z,2.45
2022-08-09T20:59:17.598Z,2.80
2022-08-09T21:01:53.563Z,2.83
2022-08-09T21:05:51.261Z,3.42
2022-08-09T21:07:14.014Z,2.63
2022-08-09T21:09:45.905Z,2.90
2022-08-09T21:15:12.418Z,2.85
2022-08-09T21:18:22.356Z,2.80
2022-08-09T21:20:30.370Z,3.58
2022-08-09T21:23:00.498Z,2.72
2022-08-09T21:25:38.145Z,2.95
2022-08-09T21:28:06.452Z,3.10
2022-08-09T21:30:37.021Z,3.08
2022-08-09T21:33:11.154Z,3.05
2022-08-09T21:35:51.382Z,3.05
2022-08-09T21:38:31.053Z,3.00
2022-08-09T21:40:59.737Z,2.92
2022-08-09T21:43:56.042Z,3.40
2022-08-09T21:46:14.873Z,3.33
2022-08-09T21:48:49.129Z,3.08
2022-08-09T21:51:24.188Z,3.58
2022-08-09T21:54:05.253Z,3.97
2022-08-09T21:56:43.463Z,3.70
2022-08-09T21:59:20.457Z,4.43
2022-08-09T22:02:01.283Z,4.63
2022-08-09T22:04:55.361Z,4.47
2022-08-09T22:07:34.983Z,3.15
2022-08-09T22:10:09.459Z,3.50
2022-08-09T22:12:38.079Z,3.33
2022-08-09T22:15:13.831Z,3.35
2022-08-09T22:17:46.092Z,3.65
2022-08-09T22:20:17.048Z,3.75
2022-08-09T22:22:49.266Z,3.55
2022-08-09T22:26:05.670Z,3.20
2022-08-09T22:28:06.610Z,3.70
2022-08-09T22:30:35.105Z,3.17
2022-08-09T22:33:09.418Z,3.00
2022-08-09T22:36:01.793Z,3.85
2022-08-09T22:38:24.729Z,3.47
2022-08-09T22:40:57.583Z,2.97
2022-08-09T22:44:02.763Z,2.75
2022-08-09T22:48:11.233Z,2.95
2022-08-09T22:49:09.532Z,3.13
2022-08-09T22:51:38.582Z,3.53
2022-08-09T22:54:11.026Z,4.60
2022-08-09T22:56:41.574Z,4.78
2022-08-09T22:59:57.795Z,5.55
2022-08-09T23:01:57.409Z,3.67
2022-08-09T23:04:25.574Z,4.20
2022-08-09T23:06:53.168Z,4.03
2022-08-09T23:09:20.777Z,3.35
2022-08-09T23:11:49.481Z,3.90
2022-08-09T23:14:17.414Z,4.60
2022-08-09T23:16:45.265Z,3.75
2022-08-09T23:19:12.648Z,4.07
2022-08-09T23:21:40.152Z,3.70
2022-08-09T23:24:09.050Z,3.28
2022-08-09T23:26:37.142Z,3.92
2022-08-09T23:29:07.000Z,3.25
2022-08-09T23:31:34.621Z,3.58
2022-08-09T23:34:03.896Z,3.30
2022-08-09T23:36:32.008Z,3.42
2022-08-09T23:38:59.821Z,3.65
2022-08-09T23:41:29.256Z,3.20
2022-08-09T23:43:58.254Z,3.30
2022-08-09T23:46:28.268Z,3.50
2022-08-09T23:48:55.662Z,3.55
2022-08-09T23:51:23.018Z,3.50
2022-08-09T23:53:52.456Z,3.22
2022-08-09T23:56:52.860Z,3.85
2022-08-09T23:59:10.587Z,3.58
